Weather reports worldwide

Advertisment
Hinojosa Del Duque, Spain (8335): temperature & dewpoint: 19.08.2019 07:00:00 - 25.08.2019 07:00:00 (CEST)Hinojosa Del Duque, Spain (8335): wind speed & gusts: 19.08.2019 07:00:00 - 25.08.2019 07:00:00 (CEST)Hinojosa Del Duque, Spain (8335): wind direction: 19.08.2019 07:00:00 - 25.08.2019 07:00:00 (CEST)Hinojosa Del Duque, Spain (8335): reduced air pressure: 19.08.2019 07:00:00 - 25.08.2019 07:00:00 (CEST)Hinojosa Del Duque, Spain (8335): precipitation: 19.08.2019 07:00:00 - 25.08.2019 07:00:00 (CEST)
Date & Time tt [°C] td [°C] ff [km/h] ff [kn] fx [km/h] fx [kn] dd ppp [hPa] rr [mm]
25.08.2019 07:00:00 21,4 12,0 0 0 18 10 E 1014,3 0,0
25.08.2019 06:00:00 22,1 12,6 11 6 27 15 SSW 1014,0 0,0
25.08.2019 05:00:00 21,3 11,9 14 7 23 12 S 1014,4 0,0
25.08.2019 04:00:00 21,3 11,0 12 7 18 10 SSE 1014,8 0,0
25.08.2019 03:00:00 21,4 8,7 8 4 12 6 SSE 1014,8 0,0
25.08.2019 02:00:00 23,3 9,7 8 4 13 7 SE 1014,2 -
25.08.2019 01:00:00 25,7 10,6 8 4 18 10 SW 1013,5 0,0
25.08.2019 00:00:00 26,1 11,1 8 5 15 8 WSW 1013,2 0,0
24.08.2019 23:00:00 28,0 11,6 10 5 24 13 SW 1012,9 0,0
24.08.2019 22:00:00 28,6 8,3 5 3 7 4 W 1012,3 0,0
24.08.2019 21:00:00 31,6 10,3 3 2 5 3 WSW 1011,5 0,0
24.08.2019 20:00:00 33,6 11,4 1 1 20 11 SSE 1011,0 -
24.08.2019 19:00:00 34,3 12,0 5 3 18 10 ENE 1011,3 0,0
24.08.2019 18:00:00 34,2 12,5 6 3 18 10 NNE 1011,7 0,0
24.08.2019 17:00:00 34,6 12,8 3 2 21 11 S 1011,9 0,0
24.08.2019 16:00:00 34,3 13,8 7 4 19 10 W 1012,5 0,0
24.08.2019 15:00:00 32,6 12,7 9 5 16 9 SSE 1013,6 0,0
24.08.2019 14:00:00 31,6 13,4 1 1 15 8 SSE 1014,4 -
24.08.2019 13:00:00 30,3 13,6 6 4 16 8 E 1015,1 0,0
24.08.2019 12:00:00 29,8 13,9 3 1 10 5 N 1015,6 0,0
24.08.2019 11:00:00 27,5 12,7 3 2 11 6 E 1016,0 0,0
24.08.2019 10:00:00 24,0 11,0 6 3 9 5 E 1016,4 0,0
24.08.2019 09:00:00 20,6 10,0 4 2 9 5 SE 1017,1 0,0
24.08.2019 08:00:00 18,5 8,4 5 3 10 6 E 1017,3 -
24.08.2019 07:00:00 19,4 8,7 8 4 15 8 E 1016,8 0,0
24.08.2019 06:00:00 20,0 8,7 8 4 14 8 NE 1016,5 0,0
24.08.2019 05:00:00 20,8 8,8 8 5 13 7 S 1016,1 0,0
24.08.2019 04:00:00 20,5 8,5 6 3 11 6 SSE 1016,2 0,0
24.08.2019 03:00:00 22,2 9,0 8 5 13 7 SSW 1015,9 0,0
24.08.2019 02:00:00 23,6 9,6 5 3 8 4 SW 1015,5 -
24.08.2019 01:00:00 24,5 10,0 4 2 13 7 E 1015,1 0,0
24.08.2019 00:00:00 26,8 11,3 4 2 19 11 SW 1014,2 0,0
23.08.2019 23:00:00 27,3 11,3 9 5 17 9 S 1013,8 0,0
23.08.2019 22:00:00 30,0 12,8 6 3 9 5 ENE 1012,6 0,0
23.08.2019 21:00:00 31,0 13,3 6 4 14 8 NNE 1012,1 0,0
23.08.2019 20:00:00 32,6 14,2 8 4 23 12 NNE 1011,6 -
23.08.2019 19:00:00 34,4 15,3 8 4 16 9 WNW 1011,5 0,0
23.08.2019 18:00:00 33,7 15,2 6 4 18 10 NNE 1011,8 0,0
23.08.2019 17:00:00 34,0 16,0 7 4 19 10 WNW 1012,2 0,0
23.08.2019 16:00:00 31,9 15,0 2 1 18 10 S 1013,1 0,0
23.08.2019 15:00:00 32,5 16,7 0 0 20 11 SW 1013,8 0,0
23.08.2019 14:00:00 30,9 16,5 5 3 18 10 E 1014,8 -
23.08.2019 13:00:00 30,0 16,8 3 2 25 13 E 1015,5 0,0
23.08.2019 12:00:00 28,5 17,4 6 3 15 8 E 1016,2 0,0
23.08.2019 11:00:00 26,6 17,4 6 4 16 8 ESE 1016,7 0,0
23.08.2019 10:00:00 24,2 16,7 9 5 14 8 E 1017,0 0,0
23.08.2019 09:00:00 21,9 16,4 4 2 7 4 E 1017,2 0,0
23.08.2019 08:00:00 19,4 15,3 5 3 10 6 E 1017,3 -
23.08.2019 07:00:00 19,2 14,9 5 3 9 5 E 1016,8 0,0
23.08.2019 06:00:00 20,2 15,2 6 3 8 5 ENE 1016,6 0,0
23.08.2019 05:00:00 20,6 15,6 5 3 11 6 NE 1016,5 0,0
23.08.2019 04:00:00 20,8 15,2 5 3 18 10 S 1016,2 0,0
23.08.2019 03:00:00 22,5 15,6 10 5 21 12 SSW 1015,7 0,0
23.08.2019 02:00:00 23,5 15,0 14 7 21 11 SW 1015,4 -
23.08.2019 01:00:00 24,7 8,7 3 2 15 8 S 1015,2 0,0
23.08.2019 00:00:00 26,5 9,8 9 5 14 8 ESE 1014,8 0,0
22.08.2019 23:00:00 26,0 9,3 6 3 12 6 E 1014,8 0,0
22.08.2019 22:00:00 27,2 9,9 9 5 14 8 E 1014,0 0,0
22.08.2019 21:00:00 30,5 12,4 0 0 5 3 ENE 1012,5 0,0
22.08.2019 20:00:00 31,9 13,2 4 2 13 7 SE 1012,0 -
22.08.2019 19:00:00 32,8 13,9 8 4 22 12 ENE 1011,8 0,0
22.08.2019 18:00:00 34,0 15,0 4 2 22 12 NE 1011,9 0,0
22.08.2019 17:00:00 32,7 14,8 4 2 25 13 E 1012,6 0,0
22.08.2019 16:00:00 32,8 14,9 6 3 24 13 E 1013,2 0,0
22.08.2019 15:00:00 32,0 16,3 7 4 22 12 E 1014,0 0,0
22.08.2019 14:00:00 30,0 15,3 9 5 22 12 ESE 1015,1 -
22.08.2019 13:00:00 28,8 16,7 7 4 22 12 E 1016,1 0,0
22.08.2019 12:00:00 26,9 16,8 9 5 18 10 ENE 1016,8 0,0
22.08.2019 11:00:00 25,5 17,1 8 4 16 8 ENE 1016,9 0,0
22.08.2019 10:00:00 23,6 17,4 8 5 12 7 E 1017,4 0,0
22.08.2019 09:00:00 20,9 16,3 8 5 12 7 E 1017,8 0,0
22.08.2019 08:00:00 18,9 15,5 8 4 11 6 E 1017,7 -
22.08.2019 07:00:00 18,9 15,0 6 3 6 4 E 1017,3 0,0
22.08.2019 06:00:00 19,5 15,3 5 3 7 4 SE 1016,9 0,0
22.08.2019 05:00:00 20,1 14,9 4 2 7 4 S 1017,0 0,0
22.08.2019 04:00:00 21,6 15,2 5 3 14 8 SE 1016,7 0,0
22.08.2019 03:00:00 23,1 15,4 9 5 21 11 ESE 1016,4 0,0
22.08.2019 02:00:00 23,8 14,5 16 8 24 13 SE 1016,0 -
22.08.2019 01:00:00 23,5 12,7 10 6 15 8 E 1016,0 0,0
22.08.2019 00:00:00 24,0 11,0 7 4 14 8 E 1015,8 0,0
21.08.2019 23:00:00 26,8 11,7 9 5 14 8 NE 1014,8 0,0
21.08.2019 22:00:00 26,8 10,0 9 5 14 7 N 1014,3 0,0
21.08.2019 21:00:00 29,7 11,7 14 8 24 13 N 1012,9 0,0
21.08.2019 20:00:00 31,5 13,8 8 4 19 10 NNE 1012,1 -
21.08.2019 19:00:00 32,3 14,9 11 6 23 12 N 1011,8 0,0
21.08.2019 18:00:00 33,5 16,4 5 3 22 12 NE 1011,5 0,0
21.08.2019 17:00:00 32,2 15,7 5 3 17 9 E 1012,1 0,0
21.08.2019 16:00:00 31,3 15,7 7 4 24 13 S 1012,9 0,0
21.08.2019 15:00:00 30,9 16,9 5 3 13 7 S 1013,7 0,0
21.08.2019 14:00:00 29,8 16,2 7 4 19 10 E 1014,3 -
21.08.2019 13:00:00 29,2 16,0 6 3 21 11 S 1014,9 0,0
21.08.2019 12:00:00 28,1 17,3 8 4 17 9 SSW 1015,4 0,0
21.08.2019 11:00:00 26,9 17,7 10 6 22 12 SSW 1015,8 0,0
21.08.2019 10:00:00 25,0 16,1 5 3 18 10 S 1016,2 0,0
21.08.2019 09:00:00 20,9 9,8 4 2 7 4 ESE 1017,0 0,0
21.08.2019 08:00:00 18,3 7,1 8 4 13 7 E 1017,1 -
21.08.2019 07:00:00 18,1 6,2 7 4 12 6 E 1016,6 0,0
21.08.2019 06:00:00 20,8 9,7 3 1 19 11 SE 1015,8 0,0
21.08.2019 05:00:00 18,8 3,4 9 5 15 8 SSW 1015,9 0,0
21.08.2019 04:00:00 19,1 2,5 6 3 9 5 S 1015,9 0,0
21.08.2019 03:00:00 22,2 4,6 2 1 21 11 NE 1015,3 0,0
21.08.2019 02:00:00 19,1 2,1 5 3 9 5 SE 1015,5 -
21.08.2019 01:00:00 21,8 3,9 4 2 7 4 WNW 1014,8 0,0
21.08.2019 00:00:00 22,7 3,8 6 3 13 7 W 1014,5 0,0
20.08.2019 23:00:00 23,9 3,8 7 4 9 5 NW 1014,1 0,0
20.08.2019 22:00:00 26,1 4,5 5 3 8 5 NW 1013,4 0,0
20.08.2019 21:00:00 29,0 5,8 5 3 11 6 NW 1012,3 0,0
20.08.2019 20:00:00 31,8 8,1 2 1 11 6 N 1011,7 -
20.08.2019 19:00:00 32,3 8,5 4 2 16 8 NNW 1011,4 0,0
20.08.2019 18:00:00 33,2 9,3 4 2 14 8 SW 1011,6 0,0
20.08.2019 17:00:00 31,7 8,0 6 3 20 11 NW 1012,3 0,0
20.08.2019 16:00:00 31,9 8,3 6 3 15 8 NW 1012,8 0,0
20.08.2019 15:00:00 30,5 7,7 6 3 14 8 SSW 1013,5 0,0
20.08.2019 14:00:00 28,8 8,0 5 3 17 9 NNE 1014,2 -
20.08.2019 13:00:00 27,2 9,0 7 4 15 8 W 1015,0 0,0
20.08.2019 12:00:00 25,2 10,3 4 2 14 8 W 1015,4 0,0
20.08.2019 11:00:00 22,0 9,6 6 3 13 7 NNW 1015,4 0,0
20.08.2019 10:00:00 20,1 8,8 8 5 15 8 NW 1015,5 0,0
20.08.2019 09:00:00 18,4 6,5 8 5 14 8 WNW 1015,5 0,0
20.08.2019 08:00:00 16,1 4,5 9 5 11 6 W 1015,5 -
20.08.2019 07:00:00 16,0 4,1 5 3 - - WSW 1014,9 -
20.08.2019 06:00:00 - - - - - - - - -
20.08.2019 05:00:00 - - - - - - - - -
20.08.2019 04:00:00 - - - - - - - - -
20.08.2019 03:00:00 - - - - - - - - -
20.08.2019 02:00:00 - - - - - - - - -
20.08.2019 01:00:00 - - - - - - - - -
20.08.2019 00:00:00 - - - - - - - - -
19.08.2019 23:00:00 - - - - - - - - -
19.08.2019 22:00:00 - - - - - - - - -
19.08.2019 21:00:00 - - - - - - - - -
19.08.2019 20:00:00 30,3 10,3 24 13 35 19 NNW 1010,2 -
19.08.2019 19:00:00 33,2 13,3 13 7 26 14 WNW 1009,3 0,0
19.08.2019 18:00:00 33,4 13,9 14 8 35 19 W 1009,4 0,0
19.08.2019 17:00:00 33,2 14,2 16 9 37 20 W 1010,3 0,0
19.08.2019 16:00:00 32,7 14,3 17 9 48 26 W 1010,9 0,0
19.08.2019 15:00:00 31,8 13,6 14 8 44 24 W 1011,3 0,0
19.08.2019 14:00:00 31,5 13,3 12 6 27 14 SW 1012,1 -
19.08.2019 13:00:00 30,3 13,2 8 4 19 10 SW 1012,4 0,0
19.08.2019 12:00:00 28,4 13,2 6 4 12 6 SW 1012,9 0,0
19.08.2019 11:00:00 26,0 15,1 2 1 9 5 NNW 1013,4 0,0
19.08.2019 10:00:00 22,8 15,3 6 3 11 6 NW 1013,9 0,0
19.08.2019 09:00:00 20,7 15,9 6 3 11 6 W 1014,5 0,0
19.08.2019 08:00:00 17,9 15,0 6 3 10 5 WSW 1015,1 -
19.08.2019 07:00:00 18,1 14,6 4 2 9 5 WNW 1014,7 0,0

tt = temperature
td = dewpoint
ff = wind speed
fx = gusts
dd = wind direction
ppp = reduced air pressure
rr = precipitation

Next stations